sensor_id;sensor_type;location;lat;lon;timestamp;P1;durP1;ratioP1;P2;durP2;ratioP2
30036;SDS011;36325;51.512;-0.382;2022-11-13T00:02:19;63.22;;;27.35;;
30036;SDS011;36325;51.512;-0.382;2022-11-13T00:05:05;54.58;;;28.45;;
30036;SDS011;36325;51.512;-0.382;2022-11-13T00:07:51;62.83;;;28.20;;
30036;SDS011;36325;51.512;-0.382;2022-11-13T00:10:37;66.15;;;30.50;;
30036;SDS011;36325;51.512;-0.382;2022-11-13T00:13:22;67.85;;;29.20;;
30036;SDS011;36325;51.512;-0.382;2022-11-13T00:16:15;57.55;;;24.65;;
30036;SDS011;36325;51.512;-0.382;2022-11-13T00:19:02;59.03;;;25.80;;
30036;SDS011;36325;51.512;-0.382;2022-11-13T00:21:48;60.20;;;26.20;;
30036;SDS011;36325;51.512;-0.382;2022-11-13T00:24:34;62.75;;;26.10;;
30036;SDS011;36325;51.512;-0.382;2022-11-13T00:27:20;54.08;;;25.58;;
30036;SDS011;36325;51.512;-0.382;2022-11-13T00:30:05;58.97;;;26.17;;
30036;SDS011;36325;51.512;-0.382;2022-11-13T00:32:51;62.70;;;27.58;;
30036;SDS011;36325;51.512;-0.382;2022-11-13T00:35:37;61.00;;;25.83;;
30036;SDS011;36325;51.512;-0.382;2022-11-13T00:38:23;56.90;;;27.60;;
30036;SDS011;36325;51.512;-0.382;2022-11-13T00:41:10;64.32;;;26.60;;
30036;SDS011;36325;51.512;-0.382;2022-11-13T00:43:56;58.28;;;26.88;;
30036;SDS011;36325;51.512;-0.382;2022-11-13T00:46:41;64.40;;;27.58;;
30036;SDS011;36325;51.512;-0.382;2022-11-13T00:49:27;56.30;;;26.30;;
30036;SDS011;36325;51.512;-0.382;2022-11-13T00:52:13;62.28;;;27.10;;
30036;SDS011;36325;51.512;-0.382;2022-11-13T00:54:59;56.30;;;25.65;;
30036;SDS011;36325;51.512;-0.382;2022-11-13T00:57:44;60.80;;;25.83;;
30036;SDS011;36325;51.512;-0.382;2022-11-13T01:00:31;58.78;;;27.05;;
30036;SDS011;36325;51.512;-0.382;2022-11-13T01:03:17;57.88;;;28.23;;
30036;SDS011;36325;51.512;-0.382;2022-11-13T01:06:12;61.17;;;27.95;;
30036;SDS011;36325;51.512;-0.382;2022-11-13T01:09:01;53.05;;;25.15;;
30036;SDS011;36325;51.512;-0.382;2022-11-13T01:11:47;60.55;;;26.67;;
30036;SDS011;36325;51.512;-0.382;2022-11-13T01:14:33;59.80;;;27.15;;
30036;SDS011;36325;51.512;-0.382;2022-11-13T01:17:19;61.53;;;26.00;;
30036;SDS011;36325;51.512;-0.382;2022-11-13T01:20:05;65.78;;;29.00;;
30036;SDS011;36325;51.512;-0.382;2022-11-13T01:22:51;62.97;;;28.27;;
30036;SDS011;36325;51.512;-0.382;2022-11-13T01:25:36;58.88;;;26.25;;
30036;SDS011;36325;51.512;-0.382;2022-11-13T01:28:22;62.25;;;26.98;;
30036;SDS011;36325;51.512;-0.382;2022-11-13T01:31:08;61.22;;;26.83;;
30036;SDS011;36325;51.512;-0.382;2022-11-13T01:33:56;61.58;;;26.33;;
30036;SDS011;36325;51.512;-0.382;2022-11-13T01:36:42;59.38;;;25.95;;
30036;SDS011;36325;51.512;-0.382;2022-11-13T01:39:28;67.32;;;25.58;;
30036;SDS011;36325;51.512;-0.382;2022-11-13T01:42:14;62.78;;;27.45;;
30036;SDS011;36325;51.512;-0.382;2022-11-13T01:45:00;58.53;;;24.95;;
30036;SDS011;36325;51.512;-0.382;2022-11-13T01:47:49;60.22;;;26.50;;
30036;SDS011;36325;51.512;-0.382;2022-11-13T01:50:35;62.70;;;27.30;;
30036;SDS011;36325;51.512;-0.382;2022-11-13T01:53:21;59.90;;;27.38;;
30036;SDS011;36325;51.512;-0.382;2022-11-13T01:56:06;62.33;;;26.40;;
30036;SDS011;36325;51.512;-0.382;2022-11-13T01:58:54;61.50;;;25.67;;
30036;SDS011;36325;51.512;-0.382;2022-11-13T02:01:53;58.95;;;26.30;;
30036;SDS011;36325;51.512;-0.382;2022-11-13T02:04:40;65.63;;;26.77;;
30036;SDS011;36325;51.512;-0.382;2022-11-13T02:07:26;63.10;;;28.65;;
30036;SDS011;36325;51.512;-0.382;2022-11-13T02:10:12;64.35;;;27.30;;
30036;SDS011;36325;51.512;-0.382;2022-11-13T02:12:58;55.53;;;24.83;;
30036;SDS011;36325;51.512;-0.382;2022-11-13T02:15:44;57.45;;;25.90;;
30036;SDS011;36325;51.512;-0.382;2022-11-13T02:18:30;64.75;;;26.88;;
30036;SDS011;36325;51.512;-0.382;2022-11-13T02:21:21;61.92;;;27.25;;
30036;SDS011;36325;51.512;-0.382;2022-11-13T02:24:31;59.13;;;25.55;;
30036;SDS011;36325;51.512;-0.382;2022-11-13T02:27:38;64.30;;;24.88;;
30036;SDS011;36325;51.512;-0.382;2022-11-13T02:30:33;57.00;;;26.15;;
30036;SDS011;36325;51.512;-0.382;2022-11-13T02:36:10;52.40;;;24.00;;
30036;SDS011;36325;51.512;-0.382;2022-11-13T02:38:57;59.67;;;24.95;;
30036;SDS011;36325;51.512;-0.382;2022-11-13T02:41:49;53.13;;;26.17;;
30036;SDS011;36325;51.512;-0.382;2022-11-13T02:44:34;51.25;;;23.33;;
30036;SDS011;36325;51.512;-0.382;2022-11-13T02:47:20;56.95;;;24.73;;
30036;SDS011;36325;51.512;-0.382;2022-11-13T02:50:06;54.08;;;24.52;;
30036;SDS011;36325;51.512;-0.382;2022-11-13T02:52:54;55.05;;;24.42;;
30036;SDS011;36325;51.512;-0.382;2022-11-13T02:55:40;50.58;;;23.30;;
30036;SDS011;36325;51.512;-0.382;2022-11-13T02:58:26;54.78;;;22.77;;
30036;SDS011;36325;51.512;-0.382;2022-11-13T03:01:12;49.75;;;21.73;;
30036;SDS011;36325;51.512;-0.382;2022-11-13T03:03:58;47.00;;;23.77;;
30036;SDS011;36325;51.512;-0.382;2022-11-13T03:06:44;43.40;;;22.10;;
30036;SDS011;36325;51.512;-0.382;2022-11-13T03:09:29;47.60;;;20.08;;
30036;SDS011;36325;51.512;-0.382;2022-11-13T03:12:15;47.92;;;21.48;;
30036;SDS011;36325;51.512;-0.382;2022-11-13T03:15:02;42.90;;;19.58;;
30036;SDS011;36325;51.512;-0.382;2022-11-13T03:17:49;47.80;;;21.17;;
30036;SDS011;36325;51.512;-0.382;2022-11-13T03:20:35;44.10;;;22.40;;
30036;SDS011;36325;51.512;-0.382;2022-11-13T03:23:21;47.17;;;22.33;;
30036;SDS011;36325;51.512;-0.382;2022-11-13T03:26:08;50.13;;;22.40;;
30036;SDS011;36325;51.512;-0.382;2022-11-13T03:28:55;50.20;;;22.65;;
30036;SDS011;36325;51.512;-0.382;2022-11-13T03:31:41;45.97;;;21.80;;
30036;SDS011;36325;51.512;-0.382;2022-11-13T03:34:26;46.72;;;21.92;;
30036;SDS011;36325;51.512;-0.382;2022-11-13T03:37:12;45.28;;;21.02;;
30036;SDS011;36325;51.512;-0.382;2022-11-13T03:39:57;54.97;;;22.20;;
30036;SDS011;36325;51.512;-0.382;2022-11-13T03:42:43;45.25;;;21.40;;
30036;SDS011;36325;51.512;-0.382;2022-11-13T03:45:29;46.38;;;21.17;;
30036;SDS011;36325;51.512;-0.382;2022-11-13T03:48:14;51.80;;;20.58;;
30036;SDS011;36325;51.512;-0.382;2022-11-13T03:51:00;47.70;;;20.75;;
30036;SDS011;36325;51.512;-0.382;2022-11-13T03:53:46;50.40;;;21.65;;
30036;SDS011;36325;51.512;-0.382;2022-11-13T03:56:32;44.45;;;22.55;;
30036;SDS011;36325;51.512;-0.382;2022-11-13T03:59:18;48.92;;;20.90;;
30036;SDS011;36325;51.512;-0.382;2022-11-13T04:02:03;44.80;;;21.58;;
30036;SDS011;36325;51.512;-0.382;2022-11-13T04:04:49;45.95;;;20.27;;
30036;SDS011;36325;51.512;-0.382;2022-11-13T04:07:35;46.50;;;19.63;;
30036;SDS011;36325;51.512;-0.382;2022-11-13T04:10:20;43.03;;;20.95;;
30036;SDS011;36325;51.512;-0.382;2022-11-13T04:13:06;45.03;;;21.55;;
30036;SDS011;36325;51.512;-0.382;2022-11-13T04:15:53;51.33;;;22.35;;
30036;SDS011;36325;51.512;-0.382;2022-11-13T04:18:38;49.60;;;21.60;;
30036;SDS011;36325;51.512;-0.382;2022-11-13T04:21:24;51.00;;;22.25;;
30036;SDS011;36325;51.512;-0.382;2022-11-13T04:24:09;45.95;;;22.08;;
30036;SDS011;36325;51.512;-0.382;2022-11-13T04:26:55;44.20;;;20.88;;
30036;SDS011;36325;51.512;-0.382;2022-11-13T04:29:41;45.03;;;21.00;;
30036;SDS011;36325;51.512;-0.382;2022-11-13T04:32:26;43.40;;;21.35;;
30036;SDS011;36325;51.512;-0.382;2022-11-13T04:35:12;45.97;;;20.70;;
30036;SDS011;36325;51.512;-0.382;2022-11-13T04:37:57;53.35;;;22.33;;
30036;SDS011;36325;51.512;-0.382;2022-11-13T04:40:43;47.45;;;22.52;;
30036;SDS011;36325;51.512;-0.382;2022-11-13T04:43:28;45.95;;;20.85;;
30036;SDS011;36325;51.512;-0.382;2022-11-13T04:46:14;44.60;;;21.02;;
30036;SDS011;36325;51.512;-0.382;2022-11-13T04:49:00;48.22;;;19.75;;
30036;SDS011;36325;51.512;-0.382;2022-11-13T04:51:45;43.40;;;20.83;;
30036;SDS011;36325;51.512;-0.382;2022-11-13T04:54:31;42.90;;;19.17;;
30036;SDS011;36325;51.512;-0.382;2022-11-13T04:57:16;39.63;;;18.63;;
30036;SDS011;36325;51.512;-0.382;2022-11-13T05:00:03;43.13;;;18.45;;
30036;SDS011;36325;51.512;-0.382;2022-11-13T05:02:50;42.10;;;18.58;;
30036;SDS011;36325;51.512;-0.382;2022-11-13T05:05:35;42.83;;;19.17;;
30036;SDS011;36325;51.512;-0.382;2022-11-13T05:08:21;47.22;;;20.48;;
30036;SDS011;36325;51.512;-0.382;2022-11-13T05:11:06;40.10;;;20.05;;
30036;SDS011;36325;51.512;-0.382;2022-11-13T05:13:52;41.00;;;19.00;;
30036;SDS011;36325;51.512;-0.382;2022-11-13T05:16:39;41.28;;;18.48;;
30036;SDS011;36325;51.512;-0.382;2022-11-13T05:19:24;41.97;;;19.08;;
30036;SDS011;36325;51.512;-0.382;2022-11-13T05:22:09;40.08;;;18.67;;
30036;SDS011;36325;51.512;-0.382;2022-11-13T05:24:55;40.67;;;18.60;;
30036;SDS011;36325;51.512;-0.382;2022-11-13T05:27:41;47.85;;;19.95;;
30036;SDS011;36325;51.512;-0.382;2022-11-13T05:30:26;38.72;;;18.55;;
30036;SDS011;36325;51.512;-0.382;2022-11-13T05:33:12;46.63;;;19.30;;
30036;SDS011;36325;51.512;-0.382;2022-11-13T05:36:01;48.90;;;20.73;;
30036;SDS011;36325;51.512;-0.382;2022-11-13T05:38:48;38.92;;;18.58;;
30036;SDS011;36325;51.512;-0.382;2022-11-13T05:41:34;49.28;;;20.80;;
30036;SDS011;36325;51.512;-0.382;2022-11-13T05:44:19;43.38;;;19.27;;
30036;SDS011;36325;51.512;-0.382;2022-11-13T05:47:05;37.42;;;17.35;;
30036;SDS011;36325;51.512;-0.382;2022-11-13T05:49:50;39.13;;;18.13;;
30036;SDS011;36325;51.512;-0.382;2022-11-13T05:52:36;43.00;;;20.00;;
30036;SDS011;36325;51.512;-0.382;2022-11-13T05:55:21;46.20;;;20.77;;
30036;SDS011;36325;51.512;-0.382;2022-11-13T05:58:07;40.28;;;19.35;;
30036;SDS011;36325;51.512;-0.382;2022-11-13T06:00:53;48.22;;;22.25;;
30036;SDS011;36325;51.512;-0.382;2022-11-13T06:03:48;46.40;;;21.73;;
30036;SDS011;36325;51.512;-0.382;2022-11-13T06:06:35;49.15;;;21.30;;
30036;SDS011;36325;51.512;-0.382;2022-11-13T06:09:21;52.35;;;22.35;;
30036;SDS011;36325;51.512;-0.382;2022-11-13T06:12:06;47.97;;;22.45;;
30036;SDS011;36325;51.512;-0.382;2022-11-13T06:14:52;44.92;;;20.73;;
30036;SDS011;36325;51.512;-0.382;2022-11-13T06:17:37;46.20;;;22.48;;
30036;SDS011;36325;51.512;-0.382;2022-11-13T06:20:23;46.63;;;22.42;;
30036;SDS011;36325;51.512;-0.382;2022-11-13T06:23:09;46.45;;;24.17;;
30036;SDS011;36325;51.512;-0.382;2022-11-13T06:26:08;50.53;;;22.80;;
30036;SDS011;36325;51.512;-0.382;2022-11-13T06:28:59;53.13;;;23.50;;
30036;SDS011;36325;51.512;-0.382;2022-11-13T06:31:46;50.00;;;22.55;;
30036;SDS011;36325;51.512;-0.382;2022-11-13T06:34:31;50.22;;;21.98;;
30036;SDS011;36325;51.512;-0.382;2022-11-13T06:37:17;45.83;;;22.08;;
30036;SDS011;36325;51.512;-0.382;2022-11-13T06:40:03;58.60;;;22.90;;
30036;SDS011;36325;51.512;-0.382;2022-11-13T06:42:48;53.28;;;23.58;;
30036;SDS011;36325;51.512;-0.382;2022-11-13T06:45:34;53.70;;;23.55;;
30036;SDS011;36325;51.512;-0.382;2022-11-13T06:48:20;50.45;;;22.75;;
30036;SDS011;36325;51.512;-0.382;2022-11-13T06:51:08;49.70;;;22.70;;
30036;SDS011;36325;51.512;-0.382;2022-11-13T06:53:57;52.20;;;22.08;;
30036;SDS011;36325;51.512;-0.382;2022-11-13T06:56:43;48.78;;;21.90;;
30036;SDS011;36325;51.512;-0.382;2022-11-13T06:59:29;46.15;;;21.40;;
30036;SDS011;36325;51.512;-0.382;2022-11-13T07:02:15;46.53;;;20.48;;
30036;SDS011;36325;51.512;-0.382;2022-11-13T07:05:00;43.17;;;20.23;;
30036;SDS011;36325;51.512;-0.382;2022-11-13T07:07:46;46.50;;;19.95;;
30036;SDS011;36325;51.512;-0.382;2022-11-13T07:10:31;49.10;;;20.52;;
30036;SDS011;36325;51.512;-0.382;2022-11-13T07:13:17;41.67;;;19.02;;
30036;SDS011;36325;51.512;-0.382;2022-11-13T07:16:02;49.00;;;20.40;;
30036;SDS011;36325;51.512;-0.382;2022-11-13T07:19:00;50.40;;;21.45;;
30036;SDS011;36325;51.512;-0.382;2022-11-13T07:21:45;41.03;;;20.30;;
30036;SDS011;36325;51.512;-0.382;2022-11-13T07:24:31;48.28;;;21.35;;
30036;SDS011;36325;51.512;-0.382;2022-11-13T07:27:16;48.35;;;20.05;;
30036;SDS011;36325;51.512;-0.382;2022-11-13T07:30:02;53.67;;;21.00;;
30036;SDS011;36325;51.512;-0.382;2022-11-13T07:32:48;52.38;;;22.27;;
30036;SDS011;36325;51.512;-0.382;2022-11-13T07:35:34;53.42;;;22.52;;
30036;SDS011;36325;51.512;-0.382;2022-11-13T07:38:20;50.00;;;22.75;;
30036;SDS011;36325;51.512;-0.382;2022-11-13T07:41:05;58.85;;;23.95;;
30036;SDS011;36325;51.512;-0.382;2022-11-13T07:43:51;66.57;;;22.90;;
30036;SDS011;36325;51.512;-0.382;2022-11-13T07:46:37;61.85;;;24.00;;
30036;SDS011;36325;51.512;-0.382;2022-11-13T07:49:22;49.78;;;21.23;;
30036;SDS011;36325;51.512;-0.382;2022-11-13T07:52:08;53.90;;;21.00;;
30036;SDS011;36325;51.512;-0.382;2022-11-13T07:54:53;48.83;;;21.00;;
30036;SDS011;36325;51.512;-0.382;2022-11-13T07:57:39;49.10;;;22.05;;
30036;SDS011;36325;51.512;-0.382;2022-11-13T08:00:25;45.15;;;20.58;;
30036;SDS011;36325;51.512;-0.382;2022-11-13T08:03:15;42.83;;;18.90;;
30036;SDS011;36325;51.512;-0.382;2022-11-13T08:06:02;42.15;;;18.52;;
30036;SDS011;36325;51.512;-0.382;2022-11-13T08:08:49;38.08;;;17.60;;
30036;SDS011;36325;51.512;-0.382;2022-11-13T08:11:35;45.53;;;19.27;;
30036;SDS011;36325;51.512;-0.382;2022-11-13T08:14:21;41.90;;;18.45;;
30036;SDS011;36325;51.512;-0.382;2022-11-13T08:17:06;39.95;;;19.45;;
30036;SDS011;36325;51.512;-0.382;2022-11-13T08:19:52;47.50;;;20.77;;
30036;SDS011;36325;51.512;-0.382;2022-11-13T08:22:38;39.70;;;17.73;;
30036;SDS011;36325;51.512;-0.382;2022-11-13T08:25:23;39.53;;;17.88;;
30036;SDS011;36325;51.512;-0.382;2022-11-13T08:28:09;43.90;;;18.75;;
30036;SDS011;36325;51.512;-0.382;2022-11-13T08:30:57;43.72;;;18.52;;
30036;SDS011;36325;51.512;-0.382;2022-11-13T08:33:43;42.58;;;18.38;;
30036;SDS011;36325;51.512;-0.382;2022-11-13T08:36:29;41.60;;;17.38;;
30036;SDS011;36325;51.512;-0.382;2022-11-13T08:39:14;38.58;;;16.85;;
30036;SDS011;36325;51.512;-0.382;2022-11-13T08:42:00;28.85;;;15.18;;
30036;SDS011;36325;51.512;-0.382;2022-11-13T08:44:47;32.63;;;15.60;;
30036;SDS011;36325;51.512;-0.382;2022-11-13T08:47:32;38.30;;;17.10;;
30036;SDS011;36325;51.512;-0.382;2022-11-13T08:50:18;34.65;;;16.33;;
30036;SDS011;36325;51.512;-0.382;2022-11-13T08:53:03;44.33;;;18.80;;
30036;SDS011;36325;51.512;-0.382;2022-11-13T08:55:49;30.17;;;15.15;;
30036;SDS011;36325;51.512;-0.382;2022-11-13T08:58:35;37.20;;;16.45;;
30036;SDS011;36325;51.512;-0.382;2022-11-13T09:01:20;29.85;;;15.63;;
30036;SDS011;36325;51.512;-0.382;2022-11-13T09:04:06;32.63;;;15.82;;
30036;SDS011;36325;51.512;-0.382;2022-11-13T09:06:52;30.33;;;14.40;;
30036;SDS011;36325;51.512;-0.382;2022-11-13T09:09:38;29.67;;;14.15;;
30036;SDS011;36325;51.512;-0.382;2022-11-13T09:12:24;35.28;;;13.77;;
30036;SDS011;36325;51.512;-0.382;2022-11-13T09:15:10;33.05;;;16.60;;
30036;SDS011;36325;51.512;-0.382;2022-11-13T09:17:57;33.58;;;15.10;;
30036;SDS011;36325;51.512;-0.382;2022-11-13T09:20:53;28.55;;;14.85;;
30036;SDS011;36325;51.512;-0.382;2022-11-13T09:23:39;26.90;;;14.13;;
30036;SDS011;36325;51.512;-0.382;2022-11-13T09:26:25;27.90;;;13.38;;
30036;SDS011;36325;51.512;-0.382;2022-11-13T09:29:13;32.92;;;13.43;;
30036;SDS011;36325;51.512;-0.382;2022-11-13T09:31:58;21.73;;;11.32;;
30036;SDS011;36325;51.512;-0.382;2022-11-13T09:34:44;28.98;;;11.65;;
30036;SDS011;36325;51.512;-0.382;2022-11-13T09:37:29;25.17;;;12.32;;
30036;SDS011;36325;51.512;-0.382;2022-11-13T09:40:19;23.23;;;11.75;;
30036;SDS011;36325;51.512;-0.382;2022-11-13T09:43:35;28.05;;;13.98;;
30036;SDS011;36325;51.512;-0.382;2022-11-13T09:49:28;25.45;;;13.40;;
30036;SDS011;36325;51.512;-0.382;2022-11-13T09:52:20;26.60;;;13.68;;
30036;SDS011;36325;51.512;-0.382;2022-11-13T09:55:19;20.42;;;11.10;;
30036;SDS011;36325;51.512;-0.382;2022-11-13T09:58:11;20.02;;;10.13;;
30036;SDS011;36325;51.512;-0.382;2022-11-13T10:01:01;20.58;;;9.88;;
30036;SDS011;36325;51.512;-0.382;2022-11-13T10:03:49;19.38;;;11.05;;
30036;SDS011;36325;51.512;-0.382;2022-11-13T10:07:01;20.65;;;11.15;;
30036;SDS011;36325;51.512;-0.382;2022-11-13T10:12:44;18.85;;;10.60;;
30036;SDS011;36325;51.512;-0.382;2022-11-13T10:15:32;19.15;;;10.40;;
30036;SDS011;36325;51.512;-0.382;2022-11-13T10:18:28;17.88;;;10.30;;
30036;SDS011;36325;51.512;-0.382;2022-11-13T10:24:38;19.67;;;10.50;;
30036;SDS011;36325;51.512;-0.382;2022-11-13T10:27:26;21.17;;;10.43;;
30036;SDS011;36325;51.512;-0.382;2022-11-13T10:30:16;21.35;;;10.85;;
30036;SDS011;36325;51.512;-0.382;2022-11-13T10:33:04;18.70;;;9.88;;
30036;SDS011;36325;51.512;-0.382;2022-11-13T10:39:02;15.98;;;9.48;;
30036;SDS011;36325;51.512;-0.382;2022-11-13T10:41:51;19.95;;;9.15;;
30036;SDS011;36325;51.512;-0.382;2022-11-13T10:44:38;20.35;;;10.63;;
30036;SDS011;36325;51.512;-0.382;2022-11-13T10:47:26;15.35;;;9.15;;
30036;SDS011;36325;51.512;-0.382;2022-11-13T10:50:33;20.33;;;11.00;;
30036;SDS011;36325;51.512;-0.382;2022-11-13T10:53:20;17.60;;;9.02;;
30036;SDS011;36325;51.512;-0.382;2022-11-13T11:02:07;15.00;;;9.43;;
30036;SDS011;36325;51.512;-0.382;2022-11-13T11:05:02;17.13;;;9.18;;
30036;SDS011;36325;51.512;-0.382;2022-11-13T11:07:59;15.18;;;8.77;;
30036;SDS011;36325;51.512;-0.382;2022-11-13T11:10:57;16.95;;;9.27;;
30036;SDS011;36325;51.512;-0.382;2022-11-13T11:16:54;14.00;;;8.32;;
30036;SDS011;36325;51.512;-0.382;2022-11-13T11:19:41;12.85;;;8.65;;
30036;SDS011;36325;51.512;-0.382;2022-11-13T11:22:33;20.73;;;9.43;;
30036;SDS011;36325;51.512;-0.382;2022-11-13T11:28:22;15.32;;;8.73;;
30036;SDS011;36325;51.512;-0.382;2022-11-13T11:34:46;15.10;;;8.82;;
30036;SDS011;36325;51.512;-0.382;2022-11-13T11:37:48;17.40;;;9.50;;
30036;SDS011;36325;51.512;-0.382;2022-11-13T11:40:50;13.75;;;8.45;;
30036;SDS011;36325;51.512;-0.382;2022-11-13T11:43:43;15.25;;;8.95;;
30036;SDS011;36325;51.512;-0.382;2022-11-13T11:46:29;16.70;;;9.30;;
30036;SDS011;36325;51.512;-0.382;2022-11-13T11:49:15;16.77;;;9.27;;
30036;SDS011;36325;51.512;-0.382;2022-11-13T12:05:14;19.23;;;10.52;;
30036;SDS011;36325;51.512;-0.382;2022-11-13T12:08:14;21.85;;;11.60;;
30036;SDS011;36325;51.512;-0.382;2022-11-13T12:11:30;18.73;;;10.83;;
30036;SDS011;36325;51.512;-0.382;2022-11-13T12:23:40;21.00;;;11.43;;
30036;SDS011;36325;51.512;-0.382;2022-11-13T12:35:55;17.10;;;10.60;;
30036;SDS011;36325;51.512;-0.382;2022-11-13T12:41:38;16.30;;;10.30;;
30036;SDS011;36325;51.512;-0.382;2022-11-13T12:44:47;19.05;;;11.00;;
30036;SDS011;36325;51.512;-0.382;2022-11-13T12:47:53;20.77;;;10.00;;
30036;SDS011;36325;51.512;-0.382;2022-11-13T12:50:39;15.30;;;10.02;;
30036;SDS011;36325;51.512;-0.382;2022-11-13T12:53:25;15.32;;;9.93;;
30036;SDS011;36325;51.512;-0.382;2022-11-13T12:56:29;11.90;;;8.73;;
30036;SDS011;36325;51.512;-0.382;2022-11-13T13:08:20;11.63;;;8.55;;
30036;SDS011;36325;51.512;-0.382;2022-11-13T13:11:25;11.40;;;8.80;;
30036;SDS011;36325;51.512;-0.382;2022-11-13T13:22:53;11.82;;;9.02;;
30036;SDS011;36325;51.512;-0.382;2022-11-13T13:25:41;16.85;;;8.85;;
30036;SDS011;36325;51.512;-0.382;2022-11-13T13:28:26;13.32;;;9.85;;
30036;SDS011;36325;51.512;-0.382;2022-11-13T13:41:08;15.93;;;11.10;;
30036;SDS011;36325;51.512;-0.382;2022-11-13T13:47:13;16.33;;;11.18;;
30036;SDS011;36325;51.512;-0.382;2022-11-13T13:50:19;13.93;;;10.82;;
30036;SDS011;36325;51.512;-0.382;2022-11-13T13:53:11;18.83;;;12.68;;
30036;SDS011;36325;51.512;-0.382;2022-11-13T13:56:03;18.80;;;11.82;;
30036;SDS011;36325;51.512;-0.382;2022-11-13T13:58:54;22.53;;;11.73;;
30036;SDS011;36325;51.512;-0.382;2022-11-13T14:01:40;20.42;;;12.88;;
30036;SDS011;36325;51.512;-0.382;2022-11-13T14:04:27;18.15;;;11.77;;
30036;SDS011;36325;51.512;-0.382;2022-11-13T14:07:18;16.48;;;11.43;;
30036;SDS011;36325;51.512;-0.382;2022-11-13T14:10:15;14.85;;;10.27;;
30036;SDS011;36325;51.512;-0.382;2022-11-13T14:13:03;17.52;;;10.43;;
30036;SDS011;36325;51.512;-0.382;2022-11-13T14:15:58;18.02;;;11.35;;
30036;SDS011;36325;51.512;-0.382;2022-11-13T14:18:48;17.98;;;12.43;;
30036;SDS011;36325;51.512;-0.382;2022-11-13T14:21:33;18.73;;;12.07;;
30036;SDS011;36325;51.512;-0.382;2022-11-13T14:24:20;20.02;;;12.40;;
30036;SDS011;36325;51.512;-0.382;2022-11-13T14:27:14;17.88;;;11.85;;
30036;SDS011;36325;51.512;-0.382;2022-11-13T14:30:03;19.48;;;11.35;;
30036;SDS011;36325;51.512;-0.382;2022-11-13T14:32:54;16.42;;;11.57;;
30036;SDS011;36325;51.512;-0.382;2022-11-13T14:35:48;21.98;;;12.27;;
30036;SDS011;36325;51.512;-0.382;2022-11-13T14:38:38;16.70;;;11.50;;
30036;SDS011;36325;51.512;-0.382;2022-11-13T14:41:36;16.70;;;12.35;;
30036;SDS011;36325;51.512;-0.382;2022-11-13T14:44:25;19.85;;;12.68;;
30036;SDS011;36325;51.512;-0.382;2022-11-13T14:47:20;16.77;;;11.82;;
30036;SDS011;36325;51.512;-0.382;2022-11-13T14:50:23;18.77;;;13.07;;
30036;SDS011;36325;51.512;-0.382;2022-11-13T14:53:14;18.50;;;12.13;;
30036;SDS011;36325;51.512;-0.382;2022-11-13T14:56:17;16.70;;;11.93;;
30036;SDS011;36325;51.512;-0.382;2022-11-13T14:59:07;17.00;;;10.98;;
30036;SDS011;36325;51.512;-0.382;2022-11-13T15:01:56;14.63;;;11.48;;
30036;SDS011;36325;51.512;-0.382;2022-11-13T15:04:43;16.63;;;11.88;;
30036;SDS011;36325;51.512;-0.382;2022-11-13T15:07:29;18.13;;;12.13;;
30036;SDS011;36325;51.512;-0.382;2022-11-13T15:10:18;18.88;;;12.88;;
30036;SDS011;36325;51.512;-0.382;2022-11-13T15:13:14;20.13;;;13.25;;
30036;SDS011;36325;51.512;-0.382;2022-11-13T15:16:02;23.58;;;16.95;;
30036;SDS011;36325;51.512;-0.382;2022-11-13T15:18:52;22.75;;;13.63;;
30036;SDS011;36325;51.512;-0.382;2022-11-13T15:21:46;47.40;;;21.45;;
30036;SDS011;36325;51.512;-0.382;2022-11-13T15:24:52;22.08;;;15.23;;
30036;SDS011;36325;51.512;-0.382;2022-11-13T15:27:37;23.38;;;14.35;;
30036;SDS011;36325;51.512;-0.382;2022-11-13T15:30:27;22.15;;;13.85;;
30036;SDS011;36325;51.512;-0.382;2022-11-13T15:33:13;22.63;;;13.75;;
30036;SDS011;36325;51.512;-0.382;2022-11-13T15:36:00;22.98;;;14.05;;
30036;SDS011;36325;51.512;-0.382;2022-11-13T15:38:46;29.40;;;20.67;;
30036;SDS011;36325;51.512;-0.382;2022-11-13T15:41:32;43.40;;;27.98;;
30036;SDS011;36325;51.512;-0.382;2022-11-13T15:44:18;28.77;;;17.15;;
30036;SDS011;36325;51.512;-0.382;2022-11-13T15:47:17;30.35;;;19.45;;
30036;SDS011;36325;51.512;-0.382;2022-11-13T15:50:19;20.40;;;13.93;;
30036;SDS011;36325;51.512;-0.382;2022-11-13T15:53:05;25.52;;;16.55;;
30036;SDS011;36325;51.512;-0.382;2022-11-13T15:55:54;25.52;;;14.88;;
30036;SDS011;36325;51.512;-0.382;2022-11-13T15:58:46;27.55;;;14.82;;
30036;SDS011;36325;51.512;-0.382;2022-11-13T16:01:32;27.25;;;16.10;;
30036;SDS011;36325;51.512;-0.382;2022-11-13T16:04:17;28.75;;;15.13;;
30036;SDS011;36325;51.512;-0.382;2022-11-13T16:07:03;28.17;;;16.50;;
30036;SDS011;36325;51.512;-0.382;2022-11-13T16:09:50;31.52;;;17.40;;
30036;SDS011;36325;51.512;-0.382;2022-11-13T16:12:35;29.80;;;16.60;;
30036;SDS011;36325;51.512;-0.382;2022-11-13T16:15:21;30.58;;;18.13;;
30036;SDS011;36325;51.512;-0.382;2022-11-13T16:18:08;31.60;;;18.67;;
30036;SDS011;36325;51.512;-0.382;2022-11-13T16:21:01;32.95;;;18.65;;
30036;SDS011;36325;51.512;-0.382;2022-11-13T16:23:46;29.83;;;17.83;;
30036;SDS011;36325;51.512;-0.382;2022-11-13T16:26:35;35.08;;;18.27;;
30036;SDS011;36325;51.512;-0.382;2022-11-13T16:29:21;36.90;;;20.55;;
30036;SDS011;36325;51.512;-0.382;2022-11-13T16:32:12;36.38;;;18.95;;
30036;SDS011;36325;51.512;-0.382;2022-11-13T16:35:00;40.58;;;22.40;;
30036;SDS011;36325;51.512;-0.382;2022-11-13T16:37:46;54.08;;;27.55;;
30036;SDS011;36325;51.512;-0.382;2022-11-13T16:40:32;50.28;;;25.90;;
30036;SDS011;36325;51.512;-0.382;2022-11-13T16:43:18;48.45;;;24.85;;
30036;SDS011;36325;51.512;-0.382;2022-11-13T16:46:12;48.08;;;24.48;;
30036;SDS011;36325;51.512;-0.382;2022-11-13T16:49:11;50.47;;;26.38;;
30036;SDS011;36325;51.512;-0.382;2022-11-13T16:52:02;51.28;;;27.38;;
30036;SDS011;36325;51.512;-0.382;2022-11-13T16:54:48;63.72;;;28.77;;
30036;SDS011;36325;51.512;-0.382;2022-11-13T16:57:36;51.08;;;25.48;;
30036;SDS011;36325;51.512;-0.382;2022-11-13T17:00:22;61.95;;;28.67;;
30036;SDS011;36325;51.512;-0.382;2022-11-13T17:03:11;51.97;;;27.45;;
30036;SDS011;36325;51.512;-0.382;2022-11-13T17:05:57;54.88;;;27.50;;
30036;SDS011;36325;51.512;-0.382;2022-11-13T17:08:43;61.15;;;29.45;;
30036;SDS011;36325;51.512;-0.382;2022-11-13T17:11:29;59.88;;;28.63;;
30036;SDS011;36325;51.512;-0.382;2022-11-13T17:14:16;51.92;;;27.70;;
30036;SDS011;36325;51.512;-0.382;2022-11-13T17:17:02;53.90;;;27.23;;
30036;SDS011;36325;51.512;-0.382;2022-11-13T17:19:49;59.83;;;29.60;;
30036;SDS011;36325;51.512;-0.382;2022-11-13T17:22:35;81.50;;;37.03;;
30036;SDS011;36325;51.512;-0.382;2022-11-13T17:25:21;76.68;;;36.65;;
30036;SDS011;36325;51.512;-0.382;2022-11-13T17:28:10;71.43;;;34.55;;
30036;SDS011;36325;51.512;-0.382;2022-11-13T17:30:59;68.97;;;32.55;;
30036;SDS011;36325;51.512;-0.382;2022-11-13T17:33:47;66.93;;;31.23;;
30036;SDS011;36325;51.512;-0.382;2022-11-13T17:36:37;74.95;;;36.05;;
30036;SDS011;36325;51.512;-0.382;2022-11-13T17:39:23;76.72;;;34.72;;
30036;SDS011;36325;51.512;-0.382;2022-11-13T17:42:09;66.68;;;33.05;;
30036;SDS011;36325;51.512;-0.382;2022-11-13T17:44:55;88.05;;;38.15;;
30036;SDS011;36325;51.512;-0.382;2022-11-13T17:47:41;62.35;;;30.50;;
30036;SDS011;36325;51.512;-0.382;2022-11-13T17:50:27;71.53;;;30.98;;